Time;durP1;ratioP1;P1;durP2;ratioP2;P2;SDS_P1;SDS_P2;PMS_P1;PMS_P2;Temp;Humidity;BMP_temperature;BMP_pressure;BME280_temperature;BME280_humidity;BME280_pressure;Samples;Min_cycle;Max_cycle;Signal;HPM_P1;HPM_P2
2022/04/14 00:02:06;;;;;;;26.77;14.63;;;14.60;99.90;;;;;;5071942;28;20028;-59
2022/04/14 00:04:35;;;;;;;26.05;15.15;;;14.50;99.90;;;;;;5072991;28;20063;-61
2022/04/14 00:07:03;;;;;;;25.75;13.82;;;14.50;99.90;;;;;;5071997;28;20016;-60
2022/04/14 00:09:29;;;;;;;25.30;14.27;;;14.40;99.90;;;;;;5078228;28;20078;-60
2022/04/14 00:11:55;;;;;;;21.25;13.70;;;14.40;99.90;;;;;;5071466;28;20079;-59
2022/04/14 00:14:21;;;;;;;25.08;14.65;;;14.50;99.90;;;;;;5083160;28;20026;-60
2022/04/14 00:16:47;;;;;;;25.17;15.48;;;14.40;99.90;;;;;;5077278;28;20182;-60
2022/04/14 00:19:12;;;;;;;26.00;15.30;;;14.40;99.90;;;;;;5076682;28;20519;-60
2022/04/14 00:21:38;;;;;;;28.42;16.40;;;14.40;99.90;;;;;;5084278;28;20475;-58
2022/04/14 00:24:04;;;;;;;31.10;16.40;;;14.30;99.90;;;;;;5081245;28;20090;-56
2022/04/14 00:26:30;;;;;;;28.20;15.85;;;14.30;99.90;;;;;;5089259;28;20028;-61
2022/04/14 00:28:56;;;;;;;30.48;17.08;;;14.30;99.90;;;;;;5082873;28;20027;-59
2022/04/14 00:31:21;;;;;;;29.45;17.30;;;14.20;99.90;;;;;;5070116;28;20024;-59
2022/04/14 00:33:47;;;;;;;36.53;19.52;;;14.20;99.90;;;;;;5077722;28;20028;-60
2022/04/14 00:36:13;;;;;;;38.15;18.75;;;14.20;99.90;;;;;;5077082;28;20345;-61
2022/04/14 00:38:38;;;;;;;37.33;19.20;;;14.20;99.90;;;;;;5065083;28;20028;-60
2022/04/14 00:41:04;;;;;;;31.55;18.17;;;14.20;99.90;;;;;;5086145;28;20054;-60
2022/04/14 00:43:34;;;;;;;34.50;18.85;;;14.20;99.90;;;;;;5073368;28;20043;-61
2022/04/14 00:46:02;;;;;;;36.25;18.98;;;14.20;99.90;;;;;;5070243;28;20107;-61
2022/04/14 00:48:28;;;;;;;27.98;17.65;;;14.10;99.90;;;;;;5074366;28;20031;-61
2022/04/14 00:50:54;;;;;;;33.50;19.17;;;14.20;99.90;;;;;;5076883;28;20411;-60
2022/04/14 00:53:21;;;;;;;35.28;19.27;;;14.20;99.90;;;;;;5069354;28;20029;-61
2022/04/14 00:55:47;;;;;;;40.30;20.88;;;14.10;99.90;;;;;;5070865;28;20111;-59
2022/04/14 00:58:13;;;;;;;35.40;21.38;;;14.10;99.90;;;;;;5071122;28;20166;-61
2022/04/14 01:00:39;;;;;;;39.40;21.20;;;14.10;99.90;;;;;;5070460;28;20028;-61
2022/04/14 01:03:05;;;;;;;35.92;21.23;;;14.00;99.90;;;;;;5073767;28;20040;-60
2022/04/14 01:05:31;;;;;;;40.25;21.30;;;14.00;99.90;;;;;;5070435;28;20086;-60
2022/04/14 01:07:58;;;;;;;39.85;22.02;;;14.00;99.90;;;;;;5080484;28;20524;-59
2022/04/14 01:10:25;;;;;;;41.80;21.80;;;14.00;99.90;;;;;;5075734;28;20024;-61
2022/04/14 01:12:52;;;;;;;35.28;20.65;;;13.90;99.90;;;;;;5089912;28;20073;-60
2022/04/14 01:15:18;;;;;;;39.35;23.13;;;14.00;99.90;;;;;;5074023;28;20051;-61
2022/04/14 01:17:43;;;;;;;40.00;22.50;;;14.00;99.90;;;;;;5074474;28;20063;-60
2022/04/14 01:20:11;;;;;;;43.10;22.80;;;13.80;99.90;;;;;;5068629;28;20036;-60
2022/04/14 01:22:44;;;;;;;43.10;24.98;;;13.80;99.90;;;;;;5069541;28;20040;-61
2022/04/14 01:25:09;;;;;;;41.85;22.55;;;13.80;99.90;;;;;;5066032;28;20548;-61
2022/04/14 01:27:35;;;;;;;45.78;23.60;;;13.80;99.90;;;;;;5076954;28;20119;-61
2022/04/14 01:30:01;;;;;;;42.95;24.25;;;13.80;99.90;;;;;;5078360;28;20032;-59
2022/04/14 01:32:27;;;;;;;41.28;22.42;;;13.90;99.90;;;;;;5065500;28;20029;-61
2022/04/14 01:34:52;;;;;;;42.30;24.23;;;13.80;99.90;;;;;;5078016;28;20123;-61
2022/04/14 01:37:18;;;;;;;43.63;26.00;;;13.80;99.90;;;;;;5080185;28;20462;-61
2022/04/14 01:39:44;;;;;;;44.38;24.13;;;13.80;99.90;;;;;;5078161;28;20581;-61
2022/04/14 01:42:10;;;;;;;44.83;24.30;;;13.70;99.90;;;;;;5069338;28;20032;-61
2022/04/14 01:44:35;;;;;;;50.85;25.48;;;13.70;99.90;;;;;;5072045;28;20034;-61
2022/04/14 01:47:01;;;;;;;48.08;26.77;;;13.70;99.90;;;;;;5068591;28;20058;-61
2022/04/14 01:49:27;;;;;;;47.60;26.85;;;13.70;99.90;;;;;;5069508;28;20033;-60
2022/04/14 01:51:52;;;;;;;54.80;30.45;;;13.70;99.90;;;;;;5071594;28;20050;-61
2022/04/14 01:54:18;;;;;;;55.85;32.88;;;13.70;99.90;;;;;;5073834;28;20051;-61
2022/04/14 01:56:44;;;;;;;57.67;30.73;;;13.70;99.90;;;;;;5072911;28;20384;-61
2022/04/14 01:59:10;;;;;;;54.90;32.08;;;13.70;99.90;;;;;;5073263;28;20127;-60
2022/04/14 02:01:35;;;;;;;54.08;33.20;;;13.70;99.90;;;;;;5068318;28;20087;-61
2022/04/14 02:04:02;;;;;;;61.72;32.97;;;13.60;99.90;;;;;;5069496;28;20025;-61
2022/04/14 02:06:28;;;;;;;65.57;35.47;;;13.60;99.90;;;;;;5064248;28;20056;-61
2022/04/14 02:08:54;;;;;;;66.45;35.30;;;13.60;99.90;;;;;;5079755;28;20028;-59
2022/04/14 02:11:19;;;;;;;59.55;34.03;;;13.60;99.90;;;;;;5079420;28;20031;-61
2022/04/14 02:13:45;;;;;;;63.33;35.15;;;13.60;99.90;;;;;;5075587;28;20484;-60
2022/04/14 02:16:11;;;;;;;61.25;36.22;;;13.60;99.90;;;;;;5071372;28;20028;-61
2022/04/14 02:18:36;;;;;;;59.83;33.75;;;13.60;99.90;;;;;;5066359;28;20029;-61
2022/04/14 02:21:02;;;;;;;64.82;35.10;;;13.60;99.90;;;;;;5070758;28;20095;-61
2022/04/14 02:23:27;;;;;;;63.33;35.08;;;13.60;99.90;;;;;;5067565;28;20836;-61
2022/04/14 02:25:53;;;;;;;67.90;35.13;;;13.50;99.90;;;;;;5075594;28;20046;-61
2022/04/14 02:28:19;;;;;;;61.60;35.75;;;13.60;99.90;;;;;;5068740;28;20040;-61
2022/04/14 02:30:46;;;;;;;62.30;35.58;;;13.50;99.90;;;;;;5070495;28;20597;-60
2022/04/14 02:33:11;;;;;;;65.80;37.03;;;13.50;99.90;;;;;;5073578;28;20054;-59
2022/04/14 02:35:37;;;;;;;58.83;33.03;;;13.50;99.90;;;;;;5078039;28;20033;-61
2022/04/14 02:38:03;;;;;;;66.90;35.38;;;13.50;99.90;;;;;;5075165;28;20035;-61
2022/04/14 02:40:28;;;;;;;65.88;36.20;;;13.50;99.90;;;;;;5070583;28;20024;-60
2022/04/14 02:42:54;;;;;;;68.57;36.88;;;13.40;99.90;;;;;;5065201;28;20038;-60
2022/04/14 02:45:25;;;;;;;75.28;36.88;;;13.40;99.90;;;;;;5068968;28;20048;-60
2022/04/14 02:47:51;;;;;;;62.00;34.13;;;13.40;99.90;;;;;;5067253;28;20447;-60
2022/04/14 02:50:18;;;;;;;67.45;35.95;;;13.40;99.90;;;;;;5072453;28;20104;-61
2022/04/14 02:52:44;;;;;;;62.67;34.88;;;13.40;99.90;;;;;;5070004;28;20404;-61
2022/04/14 02:55:09;;;;;;;59.88;34.35;;;13.30;99.90;;;;;;5068731;28;20054;-61
2022/04/14 02:57:35;;;;;;;68.93;35.85;;;13.30;99.90;;;;;;5070299;28;20028;-60
2022/04/14 03:00:02;;;;;;;64.40;36.67;;;13.40;99.90;;;;;;5071225;28;20032;-61
2022/04/14 03:02:28;;;;;;;69.03;35.67;;;13.30;99.90;;;;;;5063140;28;20029;-61
2022/04/14 03:04:53;;;;;;;62.58;34.85;;;13.30;99.90;;;;;;5069923;28;20032;-61
2022/04/14 03:07:20;;;;;;;67.43;36.15;;;13.20;99.90;;;;;;5076110;28;20369;-61
2022/04/14 03:09:46;;;;;;;62.70;34.95;;;13.30;99.90;;;;;;5073145;28;20021;-60
2022/04/14 03:12:12;;;;;;;66.97;37.40;;;13.30;99.90;;;;;;5075608;28;20031;-61
2022/04/14 03:14:38;;;;;;;67.22;37.33;;;13.20;99.90;;;;;;5071922;28;20024;-61
2022/04/14 03:17:04;;;;;;;70.65;37.92;;;13.10;99.90;;;;;;5075694;28;20028;-60
2022/04/14 03:19:29;;;;;;;68.47;37.30;;;13.10;99.90;;;;;;5070143;28;20074;-61
2022/04/14 03:21:55;;;;;;;62.15;36.58;;;13.10;99.90;;;;;;5070187;28;20442;-58
2022/04/14 03:24:21;;;;;;;68.97;38.13;;;13.10;99.90;;;;;;5061738;28;20039;-60
2022/04/14 03:26:46;;;;;;;71.75;37.70;;;13.10;99.90;;;;;;5072069;28;20056;-60
2022/04/14 03:29:12;;;;;;;70.03;38.35;;;13.10;99.90;;;;;;5067447;28;20492;-61
2022/04/14 03:31:38;;;;;;;82.05;39.08;;;13.10;99.90;;;;;;5069597;28;20101;-61
2022/04/14 03:34:03;;;;;;;76.80;38.88;;;12.90;99.90;;;;;;5074755;28;20021;-61
2022/04/14 03:36:29;;;;;;;72.35;38.05;;;12.80;99.90;;;;;;5065980;28;20480;-61
2022/04/14 03:38:54;;;;;;;77.32;39.60;;;12.60;99.90;;;;;;5065983;28;20039;-60
2022/04/14 03:41:20;;;;;;;78.97;39.70;;;12.50;99.90;;;;;;5069634;28;20028;-61
2022/04/14 03:43:45;;;;;;;76.78;40.88;;;12.50;99.90;;;;;;5091221;22;20407;-60
2022/04/14 03:46:14;;;;;;;79.68;42.17;;;12.50;99.90;;;;;;5092929;28;20028;-63
2022/04/14 03:48:41;;;;;;;89.10;44.47;;;12.50;99.90;;;;;;5098970;28;20491;-62
2022/04/14 03:51:07;;;;;;;84.35;40.90;;;12.50;99.90;;;;;;5106068;28;20299;-62
2022/04/14 03:53:32;;;;;;;79.05;41.33;;;12.50;99.90;;;;;;5108572;28;20398;-59
2022/04/14 03:55:58;;;;;;;74.55;39.47;;;12.50;99.90;;;;;;5106790;28;20460;-60
2022/04/14 03:58:23;;;;;;;76.65;39.08;;;12.50;99.90;;;;;;5107903;28;20107;-61
2022/04/14 04:00:49;;;;;;;75.90;41.17;;;12.60;99.90;;;;;;5102459;28;20081;-63
2022/04/14 04:03:14;;;;;;;77.82;41.95;;;12.70;99.90;;;;;;5108093;28;20020;-62
2022/04/14 04:05:40;;;;;;;81.70;41.35;;;12.70;99.90;;;;;;5111763;27;20016;-62
2022/04/14 04:08:06;;;;;;;79.63;43.78;;;12.70;99.90;;;;;;5107777;28;20072;-62
2022/04/14 04:10:32;;;;;;;81.72;42.53;;;12.70;99.90;;;;;;5109115;28;20024;-61
2022/04/14 04:12:58;;;;;;;77.70;42.08;;;12.70;99.90;;;;;;5109168;28;20028;-61
2022/04/14 04:15:23;;;;;;;84.13;45.10;;;12.70;99.90;;;;;;5108678;27;20094;-60
2022/04/14 04:17:51;;;;;;;74.57;40.33;;;12.80;99.90;;;;;;5108419;28;20209;-61
2022/04/14 04:20:18;;;;;;;86.32;42.20;;;12.80;99.90;;;;;;5107061;28;20037;-60
2022/04/14 04:22:44;;;;;;;78.07;41.58;;;12.90;99.90;;;;;;5110624;28;20016;-61
2022/04/14 04:25:10;;;;;;;71.03;38.88;;;12.90;99.90;;;;;;5110241;28;20035;-60
2022/04/14 04:27:36;;;;;;;74.53;40.95;;;13.00;99.90;;;;;;5109356;28;20115;-60
2022/04/14 04:30:04;;;;;;;79.55;41.65;;;13.00;99.90;;;;;;5107769;28;20107;-59
2022/04/14 04:32:31;;;;;;;84.28;43.50;;;12.90;99.90;;;;;;5109938;28;20035;-60
2022/04/14 04:34:56;;;;;;;82.95;41.55;;;12.80;99.90;;;;;;5107403;28;20162;-58
2022/04/14 04:37:22;;;;;;;84.93;45.03;;;12.70;99.90;;;;;;5107927;28;20114;-60
2022/04/14 04:39:47;;;;;;;79.07;40.80;;;12.60;99.90;;;;;;5108087;28;20034;-59
2022/04/14 04:42:13;;;;;;;81.70;42.75;;;12.60;99.90;;;;;;5103948;28;20428;-58
2022/04/14 04:44:39;;;;;;;83.15;42.35;;;12.70;99.90;;;;;;5109010;28;20030;-60
2022/04/14 04:47:05;;;;;;;82.97;42.50;;;12.70;99.90;;;;;;5113097;27;20084;-59
2022/04/14 04:49:31;;;;;;;92.45;42.55;;;12.70;99.90;;;;;;5107215;28;20433;-60
2022/04/14 04:51:56;;;;;;;82.93;42.53;;;12.70;99.90;;;;;;5106455;28;20023;-60
2022/04/14 04:54:21;;;;;;;76.43;40.50;;;12.80;99.90;;;;;;5108196;28;20428;-60
2022/04/14 04:56:47;;;;;;;83.40;44.67;;;12.80;99.90;;;;;;5108121;28;20028;-60
2022/04/14 04:59:12;;;;;;;86.90;43.25;;;12.80;99.90;;;;;;5109238;28;20031;-60
2022/04/14 05:01:38;;;;;;;85.88;44.53;;;12.80;99.90;;;;;;5110070;28;20462;-61
2022/04/14 05:04:04;;;;;;;82.03;45.67;;;12.90;99.90;;;;;;5106281;28;20038;-61
2022/04/14 05:06:29;;;;;;;87.20;44.60;;;12.90;99.90;;;;;;5110001;28;20031;-58
2022/04/14 05:08:55;;;;;;;83.47;43.83;;;12.90;99.90;;;;;;5105520;28;20023;-61
2022/04/14 05:11:20;;;;;;;84.07;44.55;;;12.90;99.90;;;;;;5108109;28;20036;-60
2022/04/14 05:13:46;;;;;;;86.28;42.75;;;12.90;99.90;;;;;;5108381;28;20043;-61
2022/04/14 05:16:11;;;;;;;86.97;44.60;;;12.80;99.90;;;;;;5108549;28;20479;-61
2022/04/14 05:18:37;;;;;;;88.82;45.15;;;12.70;99.90;;;;;;5106934;28;20490;-61
2022/04/14 05:21:02;;;;;;;94.22;47.28;;;12.70;99.90;;;;;;5107176;28;20475;-61
2022/04/14 05:23:28;;;;;;;101.40;49.55;;;12.70;99.90;;;;;;5108465;28;20081;-59
2022/04/14 05:25:56;;;;;;;98.82;49.85;;;12.60;99.90;;;;;;5111862;28;20016;-60
2022/04/14 05:28:21;;;;;;;112.20;53.30;;;12.70;99.90;;;;;;5112189;28;20019;-59
2022/04/14 05:30:47;;;;;;;122.88;55.20;;;12.60;99.90;;;;;;5112846;28;20036;-59
2022/04/14 05:33:12;;;;;;;105.10;49.03;;;12.60;99.90;;;;;;5113139;28;20060;-60
2022/04/14 05:35:38;;;;;;;109.10;49.45;;;12.60;99.90;;;;;;5104999;28;20403;-60
2022/04/14 05:38:05;;;;;;;104.00;48.45;;;12.50;99.90;;;;;;5110800;28;20107;-60
2022/04/14 05:40:31;;;;;;;111.38;52.45;;;12.60;99.90;;;;;;5111852;28;20068;-60
2022/04/14 05:42:56;;;;;;;110.55;51.35;;;12.60;99.90;;;;;;5109654;28;20031;-60
2022/04/14 05:45:22;;;;;;;112.32;51.67;;;12.70;99.90;;;;;;5106786;28;20067;-60
2022/04/14 05:47:47;;;;;;;115.35;52.95;;;12.80;99.90;;;;;;5112894;28;20458;-59
2022/04/14 05:50:13;;;;;;;117.32;54.00;;;12.80;99.90;;;;;;5106721;28;20031;-59
2022/04/14 05:52:38;;;;;;;117.65;53.75;;;12.70;99.90;;;;;;5111773;27;20027;-59
2022/04/14 05:55:04;;;;;;;113.70;52.05;;;12.70;99.90;;;;;;5108557;28;20027;-59
2022/04/14 05:57:30;;;;;;;115.93;53.38;;;12.70;99.90;;;;;;5113384;28;20035;-58
2022/04/14 05:59:57;;;;;;;119.72;53.88;;;12.70;99.90;;;;;;5106232;27;20023;-60
2022/04/14 06:02:23;;;;;;;119.72;54.83;;;12.70;99.90;;;;;;5105196;28;20032;-59
2022/04/14 06:04:48;;;;;;;116.18;54.20;;;12.70;99.90;;;;;;5107394;28;20016;-60
2022/04/14 06:07:14;;;;;;;111.90;52.22;;;12.70;99.90;;;;;;5107948;28;20028;-61
2022/04/14 06:09:39;;;;;;;107.38;54.35;;;12.80;99.90;;;;;;5109453;28;20031;-60
2022/04/14 06:12:06;;;;;;;109.70;52.95;;;12.80;99.90;;;;;;5108984;28;20028;-61
2022/04/14 06:14:33;;;;;;;116.68;53.92;;;12.70;99.90;;;;;;5088297;28;20049;-59
2022/04/14 06:16:59;;;;;;;117.32;55.25;;;12.70;99.90;;;;;;5112117;27;20034;-58
2022/04/14 06:19:24;;;;;;;118.95;54.42;;;12.80;99.90;;;;;;5106053;28;20032;-60
2022/04/14 06:21:50;;;;;;;117.40;54.15;;;12.90;99.90;;;;;;5093562;28;20119;-60
2022/04/14 06:24:16;;;;;;;113.55;54.80;;;12.90;99.90;;;;;;5107391;28;20399;-60
2022/04/14 06:26:42;;;;;;;117.00;54.53;;;13.00;99.90;;;;;;5107457;28;20028;-60
2022/04/14 06:29:07;;;;;;;107.18;54.45;;;13.00;99.90;;;;;;5110061;28;20049;-60
2022/04/14 06:31:33;;;;;;;124.15;55.47;;;13.10;99.90;;;;;;5107222;28;20027;-59
2022/04/14 06:33:58;;;;;;;107.97;52.22;;;13.10;99.90;;;;;;5106839;28;20032;-61
2022/04/14 06:36:24;;;;;;;114.03;53.78;;;13.10;99.90;;;;;;5107525;28;20571;-60
2022/04/14 06:38:49;;;;;;;112.53;54.85;;;13.10;99.90;;;;;;5107612;27;20031;-60
2022/04/14 06:41:15;;;;;;;113.57;53.95;;;13.20;99.90;;;;;;5107188;28;20055;-60
2022/04/14 06:43:40;;;;;;;114.20;55.00;;;13.30;99.90;;;;;;5107938;28;20028;-60
2022/04/14 06:46:06;;;;;;;116.60;55.00;;;13.20;99.90;;;;;;5109442;28;20035;-61
2022/04/14 06:48:32;;;;;;;119.60;56.97;;;13.30;99.90;;;;;;5115413;27;20019;-59
2022/04/14 06:50:58;;;;;;;121.22;58.00;;;13.30;99.90;;;;;;5109672;28;20511;-61
2022/04/14 06:53:24;;;;;;;127.10;58.97;;;13.30;99.90;;;;;;5108845;28;20411;-59
2022/04/14 06:55:50;;;;;;;119.93;57.15;;;13.30;99.90;;;;;;5102833;28;20031;-62
2022/04/14 06:58:15;;;;;;;118.38;58.63;;;13.40;99.90;;;;;;5111018;27;20475;-59
2022/04/14 07:00:41;;;;;;;123.63;56.97;;;13.50;99.90;;;;;;5103516;28;20027;-60
2022/04/14 07:03:06;;;;;;;129.60;61.70;;;13.60;99.90;;;;;;5108086;27;20035;-61
2022/04/14 07:05:32;;;;;;;123.50;56.40;;;13.50;99.90;;;;;;5104212;28;20024;-61
2022/04/14 07:07:58;;;;;;;114.47;56.58;;;13.60;99.90;;;;;;5108578;28;20019;-61
2022/04/14 07:10:23;;;;;;;112.07;54.95;;;13.70;99.90;;;;;;5108750;28;20091;-61
2022/04/14 07:12:49;;;;;;;113.63;55.80;;;13.70;99.90;;;;;;5110315;27;20137;-61
2022/04/14 07:15:15;;;;;;;117.90;55.15;;;13.70;99.90;;;;;;5107102;28;20023;-60
2022/04/14 07:17:41;;;;;;;127.55;58.60;;;13.80;99.90;;;;;;5108904;28;20026;-61
2022/04/14 07:20:11;;;;;;;112.20;52.60;;;13.80;99.90;;;;;;5107142;27;20027;-61
2022/04/14 07:22:47;;;;;;;104.72;51.40;;;13.90;99.90;;;;;;5113462;27;20373;-61
2022/04/14 07:25:13;;;;;;;107.78;54.00;;;14.00;99.90;;;;;;5100741;27;20067;-60
2022/04/14 07:27:39;;;;;;;114.38;54.17;;;14.00;99.90;;;;;;5109932;28;20016;-61
2022/04/14 07:30:05;;;;;;;98.10;50.45;;;14.00;99.90;;;;;;5102686;28;20039;-58
2022/04/14 07:32:35;;;;;;;101.60;50.50;;;14.10;99.90;;;;;;5107177;28;20107;-59
2022/04/14 07:35:00;;;;;;;101.80;49.85;;;14.10;99.90;;;;;;5105203;28;20490;-61
2022/04/14 07:37:26;;;;;;;97.30;48.45;;;14.20;99.90;;;;;;5109121;28;20035;-61
2022/04/14 07:39:51;;;;;;;97.18;49.28;;;14.20;99.90;;;;;;5107597;27;20043;-60
2022/04/14 07:42:17;;;;;;;97.35;49.65;;;14.20;99.90;;;;;;5103515;28;20437;-59
2022/04/14 07:44:42;;;;;;;97.28;48.13;;;14.20;99.90;;;;;;5108116;27;20077;-61
2022/04/14 07:47:08;;;;;;;95.00;48.45;;;14.30;99.90;;;;;;5109334;27;20024;-53
2022/04/14 07:49:33;;;;;;;82.75;44.85;;;14.30;99.90;;;;;;5106293;27;20043;-53
2022/04/14 07:51:59;;;;;;;84.30;45.97;;;14.30;99.90;;;;;;5109455;27;20028;-55
2022/04/14 07:54:24;;;;;;;92.57;46.63;;;14.40;99.90;;;;;;5111397;27;20023;-53
2022/04/14 07:56:50;;;;;;;94.13;48.00;;;14.40;99.90;;;;;;5109472;27;20046;-53
2022/04/14 07:59:15;;;;;;;88.47;47.22;;;14.40;99.90;;;;;;5104588;28;20023;-52
2022/04/14 08:01:41;;;;;;;94.55;47.55;;;14.40;99.90;;;;;;5106112;27;20031;-57
2022/04/14 08:04:08;;;;;;;83.25;44.78;;;14.40;99.90;;;;;;5097364;28;20043;-57
2022/04/14 08:06:33;;;;;;;71.70;36.40;;;14.50;99.90;;;;;;5101831;28;20115;-53
2022/04/14 08:08:59;;;;;;;76.25;37.38;;;14.50;99.90;;;;;;5103722;28;20027;-55
2022/04/14 08:11:24;;;;;;;69.78;37.35;;;14.50;99.90;;;;;;5103396;28;20063;-57
2022/04/14 08:13:50;;;;;;;64.82;36.25;;;14.60;99.90;;;;;;5106260;28;20146;-55
2022/04/14 08:16:16;;;;;;;59.53;30.95;;;14.60;99.90;;;;;;5104636;27;20023;-55
2022/04/14 08:18:42;;;;;;;67.03;35.42;;;14.60;99.90;;;;;;5118381;27;20024;-56
2022/04/14 08:21:08;;;;;;;59.22;32.72;;;14.70;99.90;;;;;;5110031;27;20115;-55
2022/04/14 08:23:38;;;;;;;62.95;32.75;;;14.80;99.90;;;;;;5108094;27;20038;-55
2022/04/14 08:26:11;;;;;;;63.13;32.60;;;14.80;99.90;;;;;;5101614;27;20035;-56
2022/04/14 08:28:40;;;;;;;58.80;32.67;;;14.80;99.90;;;;;;5108314;27;20118;-55
2022/04/14 08:31:07;;;;;;;67.70;35.05;;;14.90;99.90;;;;;;5105554;28;20028;-58
2022/04/14 08:33:33;;;;;;;59.75;34.90;;;14.90;99.90;;;;;;5105814;27;20035;-57
2022/04/14 08:35:59;;;;;;;56.40;33.80;;;15.00;99.90;;;;;;5101352;27;20046;-56
2022/04/14 08:38:25;;;;;;;63.30;33.78;;;14.90;99.90;;;;;;5106159;27;20023;-55
2022/04/14 08:41:00;;;;;;;61.05;33.50;;;15.00;99.90;;;;;;5102062;28;20092;-56
2022/04/14 08:43:32;;;;;;;63.35;36.17;;;15.10;99.90;;;;;;5106048;27;20028;-58
2022/04/14 08:45:59;;;;;;;62.10;33.28;;;15.10;99.90;;;;;;5107575;28;20047;-57
2022/04/14 08:48:26;;;;;;;67.18;33.28;;;15.20;99.90;;;;;;5111085;27;20066;-54
2022/04/14 08:50:52;;;;;;;55.78;31.90;;;15.20;99.90;;;;;;5110645;27;20067;-55
2022/04/14 08:53:18;;;;;;;60.42;32.85;;;15.40;99.90;;;;;;5111040;28;20054;-53
2022/04/14 08:55:44;;;;;;;49.95;29.52;;;15.50;99.90;;;;;;5106119;28;20402;-52
2022/04/14 08:58:14;;;;;;;54.83;31.27;;;15.70;99.90;;;;;;5109030;28;20031;-52
2022/04/14 09:00:40;;;;;;;58.35;31.67;;;15.80;99.90;;;;;;5106662;28;20114;-54
2022/04/14 09:03:06;;;;;;;66.03;34.45;;;15.80;99.90;;;;;;5108202;28;20050;-52
2022/04/14 09:05:31;;;;;;;61.67;32.47;;;15.80;99.90;;;;;;5105746;28;20569;-57
2022/04/14 09:07:57;;;;;;;66.47;34.13;;;15.90;99.90;;;;;;5105990;28;20031;-51
2022/04/14 09:10:23;;;;;;;58.38;31.23;;;15.90;99.90;;;;;;5106463;28;20049;-55
2022/04/14 09:12:49;;;;;;;57.95;33.45;;;15.80;99.90;;;;;;5102673;28;20026;-54
2022/04/14 09:15:15;;;;;;;59.03;31.35;;;15.80;99.90;;;;;;5106000;28;20096;-55
2022/04/14 09:17:41;;;;;;;54.45;29.13;;;16.00;99.90;;;;;;5107851;28;20073;-56
2022/04/14 09:20:37;;;;;;;51.35;29.42;;;16.20;99.90;;;;;;5102187;28;20411;-57
2022/04/14 09:23:29;;;;;;;42.92;27.40;;;16.50;99.90;;;;;;5106216;28;20155;-56
2022/04/14 09:26:09;;;;;;;48.60;27.95;;;16.70;99.90;;;;;;5101659;28;20035;-54
2022/04/14 09:28:35;;;;;;;51.17;30.40;;;16.60;99.90;;;;;;5100451;28;20031;-56
2022/04/14 09:31:04;;;;;;;63.42;35.42;;;16.40;99.90;;;;;;5103162;28;20037;-55
2022/04/14 09:33:32;;;;;;;51.05;30.77;;;16.50;99.90;;;;;;5100291;28;20807;-54
2022/04/14 09:36:13;;;;;;;57.38;32.40;;;16.70;99.90;;;;;;5103462;28;20399;-53
2022/04/14 09:38:55;;;;;;;61.60;31.92;;;16.70;99.90;;;;;;5100349;28;20030;-53
2022/04/14 09:41:40;;;;;;;49.17;30.08;;;16.70;99.90;;;;;;5103412;28;20393;-55
2022/04/14 09:44:12;;;;;;;;;;;16.70;99.90;;;;;;5102719;28;20030;-54
2022/04/14 09:46:42;;;;;;;53.42;28.98;;;16.70;99.90;;;;;;5098511;28;19912;-55
2022/04/14 09:49:13;;;;;;;48.65;25.42;;;17.00;99.90;;;;;;5101375;28;20402;-56
2022/04/14 09:51:41;;;;;;;44.35;25.95;;;17.30;99.90;;;;;;5102894;28;20552;-55
2022/04/14 09:54:17;;;;;;;53.75;30.75;;;17.40;99.90;;;;;;5098859;28;20031;-56
2022/04/14 09:56:48;;;;;;;54.63;29.88;;;17.60;99.90;;;;;;5099577;28;20031;-54
2022/04/14 09:59:18;;;;;;;46.50;27.70;;;17.70;99.90;;;;;;5102449;28;20177;-55
2022/04/14 10:01:44;;;;;;;49.42;26.70;;;18.10;99.90;;;;;;5102110;28;20039;-54
2022/04/14 10:04:29;;;;;;;39.55;25.50;;;18.10;99.90;;;;;;5105237;28;20020;-57
2022/04/14 10:07:11;;;;;;;48.03;29.58;;;17.80;99.90;;;;;;5099214;28;20611;-56
2022/04/14 10:09:42;;;;;;;44.75;27.65;;;17.70;99.90;;;;;;5099517;28;20399;-51
2022/04/14 10:12:20;;;;;;;41.78;25.38;;;17.80;99.90;;;;;;5103990;27;20085;-55
2022/04/14 10:15:04;;;;;;;40.33;25.23;;;18.20;99.90;;;;;;5106832;28;20404;-53
2022/04/14 10:17:33;;;;;;;28.63;18.98;;;18.60;99.90;;;;;;5108697;28;20510;-55
2022/04/14 10:19:59;;;;;;;33.20;16.85;;;18.40;99.90;;;;;;5107331;28;20694;-53
2022/04/14 10:22:26;;;;;;;29.33;18.92;;;18.20;99.90;;;;;;5107848;28;20031;-56
2022/04/14 10:24:55;;;;;;;24.85;15.98;;;18.00;99.90;;;;;;5104215;28;20048;-51
2022/04/14 10:27:22;;;;;;;20.25;13.95;;;18.30;99.90;;;;;;5105479;28;20114;-54
2022/04/14 10:29:49;;;;;;;41.90;24.00;;;18.80;99.90;;;;;;5104234;28;20015;-53
2022/04/14 10:32:16;;;;;;;34.83;20.27;;;18.90;99.90;;;;;;5105957;28;20031;-55
2022/04/14 10:34:44;;;;;;;34.40;20.50;;;19.40;99.90;;;;;;5107242;27;20027;-53
2022/04/14 10:37:14;;;;;;;35.90;22.20;;;19.20;99.90;;;;;;5108484;27;20084;-54
2022/04/14 10:39:45;;;;;;;35.75;21.00;;;18.80;99.90;;;;;;5109930;27;20031;-51
2022/04/14 10:44:50;;;;;;;34.20;20.05;;;18.70;99.90;;;;;;5114177;22;20048;-61
2022/04/14 10:47:43;;;;;;;33.47;22.25;;;19.20;99.90;;;;;;5087051;28;20020;-61
2022/04/14 10:50:38;;;;;;;34.03;20.95;;;19.70;99.90;;;;;;5088733;28;20767;-60
2022/04/14 10:53:08;;;;;;;33.83;21.83;;;19.30;99.90;;;;;;5072920;28;20047;-61
2022/04/14 10:55:44;;;;;;;33.42;23.10;;;19.60;99.90;;;;;;5089766;28;20085;-62
2022/04/14 10:58:28;;;;;;;36.63;23.95;;;20.20;99.90;;;;;;5085970;28;20063;-61
2022/04/14 11:00:55;;;;;;;33.28;23.30;;;20.30;99.90;;;;;;5088022;28;20035;-60
2022/04/14 11:03:44;;;;;;;32.83;20.70;;;20.20;99.90;;;;;;5071372;28;20024;-60
2022/04/14 11:06:09;;;;;;;31.25;19.92;;;20.50;99.90;;;;;;5082965;28;20024;-61
2022/04/14 11:08:46;;;;;;;29.25;18.27;;;20.50;99.90;;;;;;5081607;28;20496;-59
2022/04/14 11:11:12;;;;;;;24.48;15.52;;;20.60;99.90;;;;;;5082821;28;20032;-60
2022/04/14 11:13:50;;;;;;;21.73;15.48;;;20.60;99.90;;;;;;5077932;28;20024;-61
2022/04/14 11:16:42;;;;;;;20.63;13.88;;;20.30;99.90;;;;;;5088963;28;20031;-61
2022/04/14 11:19:24;;;;;;;19.63;13.60;;;20.00;99.90;;;;;;5088272;28;20039;-62
2022/04/14 11:22:02;;;;;;;22.63;14.55;;;20.00;99.90;;;;;;5085243;28;20620;-60
2022/04/14 11:24:36;;;;;;;23.05;15.27;;;20.10;99.90;;;;;;5088014;28;20119;-60
2022/04/14 11:27:08;;;;;;;22.48;15.35;;;20.10;99.90;;;;;;5086792;28;20048;-62
2022/04/14 11:29:33;;;;;;;28.52;18.70;;;20.00;99.90;;;;;;5079672;28;20213;-61
2022/04/14 11:31:59;;;;;;;24.38;14.77;;;20.20;99.90;;;;;;5069088;28;20111;-60
2022/04/14 11:34:35;;;;;;;18.75;12.55;;;20.30;99.90;;;;;;5074881;28;20134;-59
2022/04/14 11:37:01;;;;;;;17.55;11.45;;;20.30;99.90;;;;;;5081875;28;20027;-60
2022/04/14 11:39:27;;;;;;;19.45;10.93;;;20.40;99.90;;;;;;5086668;28;20024;-60
2022/04/14 11:42:10;;;;;;;20.45;13.48;;;20.40;99.90;;;;;;5084288;28;20055;-61
2022/04/14 11:44:36;;;;;;;22.80;12.90;;;20.30;99.90;;;;;;5083128;28;20589;-59
2022/04/14 11:47:05;;;;;;;24.15;12.95;;;20.30;99.90;;;;;;5082679;28;20024;-60
2022/04/14 11:49:34;;;;;;;23.23;12.82;;;20.60;99.90;;;;;;5088584;28;20141;-58
2022/04/14 11:52:03;;;;;;;20.77;11.73;;;20.90;99.90;;;;;;5069936;28;20040;-60
2022/04/14 11:54:29;;;;;;;19.42;11.93;;;21.00;99.90;;;;;;5085544;28;20503;-52
2022/04/14 11:57:15;;;;;;;20.45;11.48;;;21.10;99.90;;;;;;5084636;28;20035;-60
2022/04/14 11:59:46;;;;;;;19.85;10.73;;;21.20;99.90;;;;;;5072016;28;20047;-58
2022/04/14 12:02:31;;;;;;;16.30;10.50;;;21.40;99.90;;;;;;5085596;28;20562;-55
2022/04/14 12:04:57;;;;;;;13.23;8.10;;;21.70;99.90;;;;;;5078756;28;20099;-56
2022/04/14 12:07:24;;;;;;;13.30;8.60;;;21.50;99.90;;;;;;5079595;28;20032;-59
2022/04/14 12:10:02;;;;;;;14.32;8.07;;;20.90;99.90;;;;;;5078000;28;20032;-58
2022/04/14 12:12:31;;;;;;;14.82;8.43;;;20.80;99.90;;;;;;5077831;28;20059;-57
2022/04/14 12:14:57;;;;;;;17.33;10.55;;;20.70;99.90;;;;;;5082885;28;20088;-58
2022/04/14 12:17:23;;;;;;;16.13;10.18;;;20.60;99.90;;;;;;5084321;28;20692;-59
2022/04/14 12:19:54;;;;;;;16.85;10.48;;;20.50;99.90;;;;;;5078614;28;20036;-61
2022/04/14 12:22:20;;;;;;;14.00;9.10;;;20.30;99.90;;;;;;5062756;28;20032;-60
2022/04/14 12:24:53;;;;;;;13.77;8.88;;;20.20;99.90;;;;;;5086354;28;20085;-58
2022/04/14 12:27:26;;;;;;;14.23;7.80;;;20.20;99.90;;;;;;5084833;28;20039;-61
2022/04/14 12:29:53;;;;;;;13.13;7.57;;;20.70;99.90;;;;;;5086339;28;20301;-60
2022/04/14 12:32:26;;;;;;;17.00;10.38;;;21.10;99.90;;;;;;5087268;28;20119;-60